Time;durP1;ratioP1;P1;durP2;ratioP2;P2;SDS_P1;SDS_P2;PMS_P1;PMS_P2;Temp;Humidity;BMP_temperature;BMP_pressure;BME280_temperature;BME280_humidity;BME280_pressure;Samples;Min_cycle;Max_cycle;Signal;HPM_P1;HPM_P2
2021/08/11 00:01:01;;;;;;;5.90;3.85;;;14.80;99.90;;;14.59;100.00;101559.44;4136517;28;20057;-74
2021/08/11 00:03:02;;;;;;;7.25;3.15;;;14.80;99.90;;;14.53;100.00;101554.78;4121067;28;20066;-75
2021/08/11 00:05:04;;;;;;;5.25;3.10;;;14.80;99.90;;;14.60;100.00;101550.50;4120381;28;20033;-74
2021/08/11 00:07:04;;;;;;;8.23;3.88;;;14.80;99.90;;;14.52;100.00;101555.75;4119980;28;20548;-74
2021/08/11 00:09:06;;;;;;;7.15;3.28;;;14.80;99.90;;;14.53;100.00;101560.94;4121139;28;20026;-74
2021/08/11 00:11:07;;;;;;;4.32;3.05;;;14.70;99.90;;;14.55;100.00;101560.75;4120157;28;20577;-74
2021/08/11 00:13:08;;;;;;;5.57;3.15;;;14.80;99.90;;;14.54;99.84;101557.28;4120054;28;20031;-74
2021/08/11 00:15:10;;;;;;;5.30;3.33;;;14.70;99.90;;;14.54;99.69;101567.06;4152108;28;20030;-74
2021/08/11 00:17:11;;;;;;;5.00;3.20;;;14.70;99.90;;;14.43;99.90;101549.59;4152277;28;20029;-74
2021/08/11 00:19:12;;;;;;;5.72;3.00;;;14.70;99.90;;;14.48;99.67;101555.28;4136107;28;20057;-74
2021/08/11 00:21:13;;;;;;;6.97;3.25;;;14.70;99.90;;;14.34;100.00;101546.09;4103839;28;20078;-74
2021/08/11 00:23:15;;;;;;;5.47;3.38;;;14.60;99.90;;;14.42;99.48;101547.13;4119714;28;20538;-74
2021/08/11 00:25:15;;;;;;;5.80;3.10;;;14.60;99.90;;;14.37;99.90;101548.44;4120668;28;20030;-74
2021/08/11 00:27:16;;;;;;;6.90;3.40;;;14.60;99.90;;;14.38;100.00;101563.38;4120919;28;20062;-74
2021/08/11 00:29:17;;;;;;;6.50;3.65;;;14.60;99.90;;;14.32;100.00;101561.34;4119734;28;20034;-74
2021/08/11 00:31:18;;;;;;;3.92;3.30;;;14.60;99.90;;;14.36;100.00;101568.03;4121048;28;20105;-74
2021/08/11 00:33:20;;;;;;;6.55;3.45;;;14.60;99.90;;;14.35;100.00;101576.13;4120084;28;20027;-74
2021/08/11 00:35:21;;;;;;;7.70;4.28;;;14.60;99.90;;;14.34;99.74;101575.28;4119686;28;20107;-74
2021/08/11 00:37:22;;;;;;;4.63;3.20;;;14.60;99.90;;;14.24;99.68;101574.56;4119618;28;20118;-74
2021/08/11 00:39:23;;;;;;;9.10;3.78;;;14.50;99.90;;;14.26;99.82;101571.75;4135342;28;20045;-74
2021/08/11 00:41:24;;;;;;;6.35;3.53;;;14.50;99.90;;;14.15;99.84;101564.91;4103475;28;20663;-74
2021/08/11 00:43:25;;;;;;;6.50;4.65;;;14.50;99.90;;;14.18;100.00;101582.34;4120784;28;20082;-74
2021/08/11 00:45:26;;;;;;;4.82;3.65;;;14.40;99.90;;;14.10;100.00;101583.09;4120947;28;20053;-74
2021/08/11 00:47:32;;;;;;;6.47;3.70;;;14.40;99.90;;;14.05;100.00;101588.06;4103293;28;20048;-74
2021/08/11 00:49:33;;;;;;;5.95;3.60;;;14.40;99.90;;;14.03;100.00;101578.59;4135534;28;20049;-75
2021/08/11 00:51:34;;;;;;;6.90;4.30;;;14.30;99.90;;;14.18;100.00;101587.63;4119548;28;20030;-74
2021/08/11 00:53:38;;;;;;;5.95;4.13;;;14.40;99.90;;;14.11;100.00;101579.47;4135171;28;20033;-75
2021/08/11 00:55:39;;;;;;;6.25;4.13;;;14.30;99.90;;;14.18;100.00;101587.63;4119296;28;20034;-74
2021/08/11 00:57:42;;;;;;;8.82;5.13;;;14.40;99.90;;;13.95;100.00;101574.06;4119337;28;20121;-75
2021/08/11 00:59:43;;;;;;;6.35;4.65;;;14.40;99.90;;;13.98;100.00;101568.44;4135385;28;20089;-74
2021/08/11 01:01:48;;;;;;;7.07;4.15;;;14.30;99.90;;;13.90;100.00;101568.41;4119382;28;20034;-74
2021/08/11 01:03:51;;;;;;;7.88;3.90;;;14.30;99.90;;;13.83;100.00;101562.06;4119166;28;20490;-75
2021/08/11 01:05:55;;;;;;;5.15;3.80;;;14.20;99.90;;;13.85;100.00;101565.41;4135469;28;20050;-75
2021/08/11 01:07:57;;;;;;;8.15;3.53;;;14.20;99.90;;;13.95;100.00;101568.78;4119312;28;20070;-74
2021/08/11 01:09:59;;;;;;;6.53;3.33;;;14.20;99.90;;;13.90;100.00;101562.28;4102929;29;20032;-74
2021/08/11 01:12:00;;;;;;;4.38;3.15;;;14.20;99.90;;;13.90;100.00;101563.13;4119076;28;20042;-74
2021/08/11 01:14:02;;;;;;;5.95;2.97;;;14.20;99.90;;;13.90;100.00;101555.16;4118659;28;20018;-74
2021/08/11 01:16:03;;;;;;;5.15;3.40;;;14.10;99.90;;;13.89;100.00;101555.34;4120411;28;20031;-74
2021/08/11 01:18:04;;;;;;;7.25;3.30;;;14.20;99.90;;;13.65;100.00;101535.63;4120466;28;20027;-74
2021/08/11 01:20:07;;;;;;;7.22;3.47;;;14.10;99.90;;;13.81;100.00;101558.75;4120102;28;20042;-74
2021/08/11 01:22:31;;;;;;;5.80;3.28;;;14.10;99.90;;;13.85;100.00;101560.13;4119002;28;20113;-74
2021/08/11 01:24:55;;;;;;;7.13;3.45;;;14.00;99.90;;;13.75;99.81;101559.38;4115706;28;20125;-74
2021/08/11 01:27:31;;;;;;;4.45;3.30;;;14.10;99.90;;;13.73;100.00;101550.75;4108461;28;20110;-74
2021/08/11 01:30:06;;;;;;;;;;;14.00;99.90;;;13.71;100.00;101552.72;4119579;28;20031;-74
2021/08/11 01:32:52;;;;;;;7.30;3.20;;;14.00;99.90;;;13.55;100.00;101542.03;4151078;28;19917;-74
2021/08/11 01:34:56;;;;;;;7.30;3.60;;;13.90;99.90;;;13.56;100.00;101543.69;4118876;28;20271;-74
2021/08/11 01:37:06;;;;;;;3.63;3.05;;;13.90;99.90;;;13.67;100.00;101551.38;4103277;28;20522;-74
2021/08/11 01:39:15;;;;;;;7.78;4.22;;;13.90;99.90;;;13.71;99.08;101544.75;4118815;28;20035;-74
2021/08/11 01:41:17;;;;;;;4.55;3.15;;;13.90;99.90;;;13.64;98.99;101547.22;4118597;28;20047;-75
2021/08/11 01:43:24;;;;;;;4.97;4.03;;;13.90;99.90;;;13.59;99.14;101540.72;4118855;28;20094;-74
2021/08/11 01:45:41;;;;;;;5.50;2.90;;;13.80;99.90;;;13.49;99.38;101545.28;4120001;28;20066;-74
2021/08/11 01:47:47;;;;;;;6.53;3.05;;;13.80;99.90;;;13.49;100.00;101548.78;4118603;28;20052;-74
2021/08/11 01:49:50;;;;;;;7.78;3.00;;;13.80;99.90;;;13.45;100.00;101544.75;4120023;28;20049;-75
2021/08/11 01:51:53;;;;;;;5.25;2.92;;;13.70;99.90;;;13.42;99.93;101536.28;4118819;28;20034;-74
2021/08/11 01:53:53;;;;;;;4.50;3.15;;;13.80;99.90;;;13.44;100.00;101540.44;4150707;28;20452;-74
2021/08/11 01:55:58;;;;;;;8.48;3.63;;;13.70;99.90;;;13.45;99.73;101546.56;4134753;28;20065;-74
2021/08/11 01:57:59;;;;;;;;;;;13.70;99.90;;;13.45;99.48;101549.22;4119197;28;20034;-74
2021/08/11 02:00:01;;;;;;;4.88;3.00;;;13.70;99.90;;;13.45;98.53;101542.13;4118603;28;19957;-74
2021/08/11 02:02:03;;;;;;;6.22;3.08;;;13.70;99.90;;;13.46;98.39;101537.66;4118351;28;20035;-74
2021/08/11 02:04:06;;;;;;;9.45;4.28;;;13.70;99.90;;;13.54;98.40;101551.78;4119848;28;20038;-74
2021/08/11 02:06:07;;;;;;;5.93;3.10;;;13.70;99.90;;;13.46;98.66;101541.13;4118622;28;20056;-74
2021/08/11 02:08:09;;;;;;;4.25;3.17;;;13.70;99.90;;;13.50;98.67;101549.63;4119659;28;20039;-74
2021/08/11 02:10:14;;;;;;;5.05;3.15;;;13.70;99.90;;;13.43;98.68;101543.25;4119353;28;20035;-74
2021/08/11 02:12:15;;;;;;;5.68;3.17;;;13.70;99.90;;;13.42;98.42;101557.50;4102618;28;20027;-74
2021/08/11 02:14:16;;;;;;;5.78;3.35;;;13.70;99.90;;;13.39;98.98;101536.59;4118511;28;20410;-74
2021/08/11 02:16:19;;;;;;;8.70;3.15;;;13.60;99.90;;;13.39;99.13;101539.25;4102433;28;20058;-74
2021/08/11 02:18:20;;;;;;;4.78;3.38;;;13.70;99.90;;;13.33;99.51;101538.06;4119548;28;20027;-74
2021/08/11 02:20:21;;;;;;;5.68;3.40;;;13.70;99.90;;;13.27;99.85;101538.66;4118606;28;20066;-74
2021/08/11 02:22:22;;;;;;;5.88;3.00;;;13.60;99.90;;;13.17;99.62;101522.03;4134680;28;20093;-74
2021/08/11 02:24:23;;;;;;;5.15;2.72;;;13.60;99.90;;;13.26;99.34;101531.72;4118167;28;20071;-74
2021/08/11 02:26:59;;;;;;;3.83;2.72;;;13.50;99.90;;;13.37;98.13;101527.97;4137185;28;20038;-74
2021/08/11 02:29:26;;;;;;;5.07;2.85;;;13.50;99.90;;;13.39;98.16;101533.94;4121757;28;20066;-74
2021/08/11 02:32:01;;;;;;;7.47;3.28;;;13.50;99.90;;;13.22;98.28;101515.28;4122639;28;20031;-74
2021/08/11 02:34:30;;;;;;;7.53;3.90;;;13.60;99.90;;;13.16;98.31;101515.91;4121734;28;20212;-74
2021/08/11 02:36:44;;;;;;;8.35;3.10;;;13.60;99.90;;;13.18;98.53;101519.22;4122017;28;20031;-74
2021/08/11 02:38:47;;;;;;;5.82;3.00;;;13.50;99.90;;;13.12;98.65;101521.66;4121363;28;20069;-74
2021/08/11 02:41:13;;;;;;;4.28;3.30;;;13.50;99.90;;;13.06;97.99;101520.41;4121368;28;20055;-74
2021/08/11 02:43:21;;;;;;;4.50;2.55;;;13.40;99.90;;;13.11;97.52;101523.47;4136744;28;20045;-74
2021/08/11 02:45:25;;;;;;;6.80;2.60;;;13.30;99.90;;;13.09;97.44;101520.16;4122640;28;20035;-75
2021/08/11 02:47:27;;;;;;;;;;;13.40;99.90;;;13.06;97.17;101517.78;4121698;28;20519;-74
2021/08/11 02:49:32;;;;;;;4.65;3.10;;;13.30;99.90;;;13.02;96.72;101511.09;4121481;28;19961;-74
2021/08/11 02:51:36;;;;;;;4.90;2.80;;;13.30;99.90;;;13.06;97.41;101520.41;4121378;28;20035;-74
2021/08/11 02:53:40;;;;;;;5.65;3.08;;;13.30;99.90;;;13.03;98.11;101514.59;4105084;28;20031;-74
2021/08/11 02:55:42;;;;;;;6.90;3.53;;;13.30;99.90;;;12.99;98.04;101516.72;4121083;28;20107;-74
2021/08/11 02:57:45;;;;;;;10.32;3.25;;;13.30;99.90;;;12.94;98.60;101508.41;4137621;28;20026;-74
2021/08/11 02:59:46;;;;;;;5.80;3.22;;;13.30;99.90;;;12.94;98.85;101511.03;4121233;28;20027;-74
2021/08/11 03:01:49;;;;;;;5.68;3.08;;;13.20;99.90;;;12.94;98.79;101505.75;4121180;28;20110;-74
2021/08/11 03:03:50;;;;;;;5.70;3.10;;;13.20;99.90;;;12.96;98.45;101508.25;4121024;28;20514;-74
2021/08/11 03:05:53;;;;;;;5.20;2.83;;;13.30;99.90;;;12.97;98.47;101505.44;4121209;28;20086;-74
2021/08/11 03:07:55;;;;;;;6.75;3.38;;;13.20;99.90;;;12.84;99.00;101510.31;4121045;28;20062;-74
2021/08/11 03:09:55;;;;;;;7.03;3.15;;;13.20;99.90;;;12.82;99.10;101516.72;4121008;28;20058;-74
2021/08/11 03:11:58;;;;;;;5.90;3.40;;;13.20;99.90;;;12.88;99.36;101516.13;4120905;28;20422;-74
2021/08/11 03:14:01;;;;;;;6.05;2.90;;;13.20;99.90;;;12.91;98.88;101518.47;4121080;28;20026;-74
2021/08/11 03:16:01;;;;;;;4.40;2.95;;;13.20;99.90;;;12.88;98.82;101519.59;4121039;28;20078;-74
2021/08/11 03:18:03;;;;;;;5.07;3.17;;;13.10;99.90;;;12.86;99.14;101515.44;4105082;29;20038;-74
2021/08/11 03:20:07;;;;;;;4.20;3.03;;;13.10;99.90;;;12.79;98.97;101512.56;4120753;28;20114;-74
2021/08/11 03:22:10;;;;;;;4.90;2.90;;;13.10;99.90;;;12.84;99.16;101514.78;4120913;28;20042;-74
2021/08/11 03:24:11;;;;;;;5.53;2.92;;;13.10;99.90;;;12.91;98.37;101503.41;4109302;28;20093;-74
2021/08/11 03:26:12;;;;;;;5.53;2.92;;;13.10;99.90;;;12.89;98.15;101526.56;4121984;28;20023;-74
2021/08/11 03:28:13;;;;;;;7.82;3.30;;;13.10;99.90;;;12.84;98.24;101520.91;4104457;28;20036;-74
2021/08/11 03:30:14;;;;;;;5.15;3.13;;;13.10;99.90;;;12.76;98.67;101512.88;4120909;28;20031;-74
2021/08/11 03:32:15;;;;;;;3.33;2.72;;;13.10;99.90;;;12.80;98.94;101518.69;4121919;28;20106;-74
2021/08/11 03:34:16;;;;;;;7.63;3.40;;;13.10;99.90;;;12.86;97.94;101524.22;4121876;28;20026;-74
2021/08/11 03:36:18;;;;;;;7.50;3.10;;;13.10;99.90;;;12.89;96.92;101529.22;4120472;28;20054;-74
2021/08/11 03:38:19;;;;;;;7.75;3.25;;;13.00;99.90;;;12.84;97.76;101531.50;4136091;28;20410;-74
2021/08/11 03:40:21;;;;;;;5.50;2.90;;;13.10;99.90;;;12.79;98.17;101517.88;4120280;28;20093;-74
2021/08/11 03:42:22;;;;;;;6.18;3.15;;;13.10;99.90;;;12.77;98.01;101520.69;4136654;28;20065;-74
2021/08/11 03:44:22;;;;;;;4.15;2.90;;;13.10;99.90;;;12.82;98.45;101529.97;4120430;28;20031;-74
2021/08/11 03:46:24;;;;;;;4.53;3.05;;;13.10;99.90;;;12.83;98.25;101526.34;4136670;28;20382;-74
2021/08/11 03:48:24;;;;;;;5.22;3.00;;;13.10;99.90;;;12.81;98.11;101528.31;4120499;28;20035;-74
2021/08/11 03:50:27;;;;;;;9.88;3.35;;;13.10;99.90;;;12.82;97.98;101519.38;4120674;28;20518;-74
2021/08/11 03:52:28;;;;;;;6.30;3.17;;;13.10;99.90;;;12.71;98.30;101520.44;4136287;28;20033;-74
2021/08/11 03:54:29;;;;;;;5.20;2.95;;;13.10;99.90;;;12.73;98.65;101524.59;4120410;28;20487;-74
2021/08/11 03:56:30;;;;;;;6.43;2.88;;;13.00;99.90;;;12.80;98.70;101527.47;4120402;28;20102;-74
2021/08/11 03:58:31;;;;;;;4.72;3.13;;;13.10;99.90;;;12.75;98.24;101519.16;4136410;28;20065;-74
2021/08/11 04:00:32;;;;;;;6.00;3.15;;;13.00;99.90;;;12.64;97.89;101520.19;4121156;28;20041;-74
2021/08/11 04:02:33;;;;;;;4.95;2.90;;;13.00;99.90;;;12.70;98.03;101535.50;4121506;28;20034;-74
2021/08/11 04:04:34;;;;;;;3.30;2.50;;;13.00;99.90;;;12.68;97.74;101532.16;4120142;28;20598;-74
2021/08/11 04:06:35;;;;;;;4.00;2.30;;;13.00;99.90;;;12.57;97.65;101518.31;4120184;28;20046;-74
2021/08/11 04:08:36;;;;;;;7.32;3.13;;;12.90;99.90;;;12.56;98.14;101528.06;4119565;28;20031;-74
2021/08/11 04:10:37;;;;;;;5.05;3.55;;;12.90;99.90;;;12.53;98.59;101533.66;4120280;28;20407;-74
2021/08/11 04:12:37;;;;;;;6.15;3.25;;;12.90;99.90;;;12.54;98.35;101523.91;4120166;28;20561;-74
2021/08/11 04:14:38;;;;;;;4.95;2.97;;;12.90;99.90;;;12.62;98.04;101548.66;4120104;28;20031;-74
2021/08/11 04:16:39;;;;;;;5.88;3.10;;;12.90;99.90;;;12.69;97.84;101544.41;4135924;28;20065;-74
2021/08/11 04:18:41;;;;;;;7.32;3.10;;;12.90;99.90;;;12.75;97.04;101546.44;4120112;28;20093;-74
2021/08/11 04:20:42;;;;;;;3.78;2.83;;;13.00;99.90;;;12.70;97.53;101551.38;4136006;28;20166;-74
2021/08/11 04:22:42;;;;;;;6.47;3.47;;;12.90;99.90;;;12.77;97.06;101548.97;4152172;28;20026;-74
2021/08/11 04:24:43;;;;;;;6.13;3.08;;;13.00;99.90;;;12.74;97.75;101554.56;4120638;28;20429;-74
2021/08/11 04:26:44;;;;;;;4.90;2.90;;;12.90;99.90;;;12.63;98.46;101552.13;4135920;28;20034;-74
2021/08/11 04:28:46;;;;;;;4.47;3.08;;;12.90;99.90;;;12.69;98.73;101556.84;4121102;28;20107;-74
2021/08/11 04:30:47;;;;;;;7.38;3.78;;;12.90;99.90;;;12.62;99.32;101547.81;4120895;28;20161;-74
2021/08/11 04:32:48;;;;;;;5.03;2.60;;;12.90;99.90;;;12.68;99.98;101544.56;4119716;28;20494;-74
2021/08/11 04:34:49;;;;;;;5.32;4.00;;;13.00;99.90;;;12.72;99.53;101544.09;4119852;28;20477;-74
2021/08/11 04:36:50;;;;;;;5.72;3.70;;;13.00;99.90;;;12.85;99.75;101541.09;4120931;28;20024;-74
2021/08/11 04:38:51;;;;;;;6.95;3.92;;;13.00;99.90;;;12.86;100.00;101545.41;4119278;28;20037;-74
2021/08/11 04:40:52;;;;;;;6.90;3.63;;;13.10;99.90;;;12.80;100.00;101543.38;4119335;28;20141;-74
2021/08/11 04:42:53;;;;;;;4.30;3.15;;;13.10;99.90;;;12.86;100.00;101550.72;4119442;28;20050;-74
2021/08/11 04:44:54;;;;;;;5.80;3.40;;;13.10;99.90;;;12.89;100.00;101544.28;4135636;28;20026;-74
2021/08/11 04:46:55;;;;;;;5.18;2.90;;;13.10;99.90;;;12.84;100.00;101534.16;4119616;28;20034;-74
2021/08/11 04:48:56;;;;;;;4.15;3.33;;;13.10;99.90;;;12.96;100.00;101540.03;4134282;28;20078;-74
2021/08/11 04:50:57;;;;;;;9.02;3.75;;;13.10;99.90;;;13.06;99.84;101546.06;4135385;28;20026;-74
2021/08/11 04:52:58;;;;;;;6.60;3.30;;;13.20;99.90;;;13.03;99.66;101547.22;4135344;28;20096;-74
2021/08/11 04:55:03;;;;;;;7.82;2.75;;;13.30;99.90;;;12.86;99.63;101534.81;4120295;28;20490;-74
2021/08/11 04:57:05;;;;;;;6.65;3.67;;;13.20;99.90;;;12.87;99.79;101536.50;4119390;28;20022;-74
2021/08/11 04:59:06;;;;;;;6.38;3.25;;;13.20;99.90;;;12.88;99.57;101537.28;4120233;28;20031;-74
2021/08/11 05:01:06;;;;;;;5.25;3.53;;;13.20;99.90;;;13.00;98.58;101541.38;4120497;28;20027;-74
2021/08/11 05:03:08;;;;;;;4.95;3.30;;;13.10;99.90;;;13.13;98.11;101547.16;4119343;28;20031;-74
2021/08/11 05:05:10;;;;;;;3.72;3.10;;;13.20;99.90;;;13.09;98.91;101551.09;4135284;28;20030;-74
2021/08/11 05:07:10;;;;;;;6.07;3.47;;;13.20;99.90;;;13.12;99.32;101550.78;4118998;28;20038;-74
2021/08/11 05:09:11;;;;;;;4.25;2.50;;;13.30;99.90;;;13.09;99.80;101554.59;4135072;28;20556;-74
2021/08/11 05:11:12;;;;;;;6.57;3.85;;;13.30;99.90;;;13.19;99.64;101552.69;4120507;28;20031;-74
2021/08/11 05:13:14;;;;;;;4.25;3.53;;;13.40;99.90;;;13.17;99.62;101556.50;4119102;28;20031;-74
2021/08/11 05:15:15;;;;;;;4.72;3.10;;;13.40;99.90;;;13.06;100.00;101559.31;4119134;28;20023;-74
2021/08/11 05:17:21;;;;;;;4.90;3.58;;;13.40;99.90;;;13.06;100.00;101570.75;4135156;28;20026;-74
2021/08/11 05:19:21;;;;;;;4.25;3.33;;;13.40;99.90;;;13.04;100.00;101561.28;4119142;28;20483;-74
2021/08/11 05:21:26;;;;;;;6.43;3.53;;;13.40;99.90;;;13.09;100.00;101561.69;4118913;28;20046;-74
2021/08/11 05:23:27;;;;;;;5.15;3.30;;;13.40;99.90;;;13.11;100.00;101565.84;4150841;28;20026;-74
2021/08/11 05:25:29;;;;;;;7.47;2.95;;;13.40;99.90;;;13.13;100.00;101571.84;4134889;28;20049;-74
2021/08/11 05:27:30;;;;;;;7.28;3.25;;;13.40;99.90;;;13.10;100.00;101572.16;4118844;28;20035;-74
2021/08/11 05:29:32;;;;;;;4.35;2.95;;;13.40;99.90;;;13.16;99.96;101574.19;4120269;28;20029;-74
2021/08/11 05:31:32;;;;;;;7.63;3.10;;;13.40;99.90;;;13.13;99.54;101582.44;4119916;28;20074;-74
2021/08/11 05:33:33;;;;;;;5.30;3.03;;;13.40;99.90;;;13.11;99.57;101573.00;4118894;28;20522;-74
2021/08/11 05:35:34;;;;;;;3.92;3.08;;;13.40;99.90;;;13.14;99.58;101581.44;4134739;28;20026;-74
2021/08/11 05:37:36;;;;;;;4.13;3.67;;;13.50;99.90;;;13.08;99.63;101574.09;4151067;28;20038;-74
2021/08/11 05:39:37;;;;;;;4.18;3.50;;;13.50;99.90;;;13.11;99.27;101570.34;4118276;28;20030;-74
2021/08/11 05:41:38;;;;;;;4.45;2.80;;;13.50;99.90;;;13.14;99.54;101570.84;4119664;28;20122;-74
2021/08/11 05:43:39;;;;;;;5.10;3.72;;;13.50;99.90;;;13.12;98.52;101571.97;4102633;29;20035;-74
2021/08/11 05:45:40;;;;;;;5.90;3.53;;;13.50;99.90;;;13.15;98.73;101572.53;4118662;28;20483;-74
2021/08/11 05:47:42;;;;;;;6.53;3.30;;;13.50;99.90;;;13.28;98.57;101582.75;4102624;28;20487;-74
2021/08/11 05:49:43;;;;;;;6.55;3.67;;;13.50;99.90;;;13.30;98.39;101570.16;4151052;28;20018;-74
2021/08/11 05:51:45;;;;;;;7.53;3.30;;;13.60;99.90;;;13.31;98.56;101569.19;4120129;28;20388;-74
2021/08/11 05:53:45;;;;;;;3.53;2.60;;;13.60;99.90;;;13.32;98.63;101579.63;4118386;28;20557;-74
2021/08/11 05:55:46;;;;;;;4.85;3.17;;;13.60;99.90;;;13.29;98.37;101581.72;4118607;28;20050;-74
2021/08/11 05:57:47;;;;;;;3.53;3.17;;;13.70;99.90;;;13.32;98.90;101584.91;4151043;28;20049;-74
2021/08/11 05:59:49;;;;;;;4.00;3.20;;;13.70;99.90;;;13.22;98.62;101572.75;4119586;28;20035;-74
2021/08/11 06:01:50;;;;;;;3.42;3.10;;;13.70;99.90;;;13.20;98.84;101572.06;4119746;28;20549;-74
2021/08/11 06:03:59;;;;;;;4.15;2.60;;;13.70;99.90;;;13.36;98.57;101579.31;4102381;28;20035;-74
2021/08/11 06:05:59;;;;;;;3.33;3.03;;;13.70;99.90;;;13.40;98.03;101575.38;4118680;28;20197;-75
2021/08/11 06:08:00;;;;;;;4.47;2.83;;;13.80;99.90;;;13.50;97.25;101589.38;4118481;28;20042;-75
2021/08/11 06:10:02;;;;;;;5.38;2.90;;;13.80;99.90;;;13.48;97.35;101584.22;4134161;28;20070;-74
2021/08/11 06:12:03;;;;;;;5.40;3.03;;;13.80;99.90;;;13.53;97.68;101589.06;4118336;28;20106;-74
2021/08/11 06:14:04;;;;;;;5.68;4.43;;;13.80;99.90;;;13.80;96.72;101588.91;4118520;28;20109;-74
2021/08/11 06:16:05;;;;;;;6.05;3.97;;;14.00;99.90;;;13.85;97.23;101586.63;4134539;28;20030;-75
2021/08/11 06:18:06;;;;;;;4.38;3.72;;;14.10;99.90;;;13.91;98.25;101595.78;4118402;28;20616;-74
2021/08/11 06:20:08;;;;;;;6.15;4.55;;;14.10;99.90;;;14.08;98.21;101595.72;4134385;28;20520;-74
2021/08/11 06:22:10;;;;;;;8.70;4.68;;;14.30;99.90;;;14.22;98.56;101602.22;4150873;28;20030;-74
2021/08/11 06:24:11;;;;;;;5.72;4.60;;;14.40;99.90;;;14.26;98.83;101607.09;4118142;28;20035;-74
2021/08/11 06:26:11;;;;;;;6.75;5.35;;;14.50;99.90;;;14.45;98.91;101597.25;4102126;29;20557;-74
2021/08/11 06:28:13;;;;;;;5.38;4.55;;;14.60;99.90;;;14.45;99.37;101594.59;4102090;28;20035;-74
2021/08/11 06:30:14;;;;;;;6.93;5.35;;;14.70;99.90;;;14.39;100.00;101594.22;4091441;29;20531;-74
2021/08/11 06:32:15;;;;;;;7.35;5.20;;;14.80;99.90;;;14.42;99.98;101586.94;4119608;28;20035;-74
2021/08/11 06:34:17;;;;;;;7.88;5.78;;;14.80;99.90;;;14.56;100.00;101595.13;4119421;28;20557;-74
2021/08/11 06:36:20;;;;;;;6.30;5.05;;;14.90;99.90;;;14.60;100.00;101591.16;4118146;28;20031;-74
2021/08/11 06:38:21;;;;;;;8.95;6.28;;;14.90;99.90;;;14.67;99.47;101588.66;4119171;28;20022;-74
2021/08/11 06:40:22;;;;;;;8.45;6.82;;;15.00;99.90;;;14.76;99.22;101601.81;4118321;28;20031;-74
2021/08/11 06:42:23;;;;;;;8.82;6.10;;;15.10;99.90;;;14.78;99.19;101599.00;4113321;28;20112;-74
2021/08/11 06:44:24;;;;;;;9.38;6.22;;;15.10;99.90;;;14.80;99.34;101604.97;4102062;28;20063;-74
2021/08/11 06:46:25;;;;;;;8.13;6.13;;;15.20;99.90;;;14.77;99.71;101600.00;4119608;28;20026;-74
2021/08/11 06:48:26;;;;;;;8.40;5.80;;;15.20;99.90;;;14.72;100.00;101591.69;4118077;28;20054;-74
2021/08/11 06:50:27;;;;;;;12.50;6.03;;;15.20;99.90;;;14.71;99.87;101605.94;4119196;28;20512;-74
2021/08/11 06:52:32;;;;;;;8.50;7.15;;;15.20;99.90;;;14.80;100.00;101599.66;4119194;28;20039;-74
2021/08/11 06:54:33;;;;;;;9.23;5.97;;;15.30;99.90;;;14.84;100.00;101599.16;4119416;28;20023;-74
2021/08/11 06:56:34;;;;;;;7.82;6.80;;;15.30;99.90;;;14.84;100.00;101577.13;4119368;28;20037;-74
2021/08/11 06:58:36;;;;;;;8.88;6.20;;;15.30;99.90;;;14.76;100.00;101587.69;4102145;28;20039;-74
2021/08/11 07:00:37;;;;;;;9.88;5.82;;;15.30;99.90;;;14.85;100.00;101592.03;4117784;28;20481;-74
2021/08/11 07:02:38;;;;;;;8.23;5.40;;;15.30;99.90;;;14.87;100.00;101592.72;4118358;28;20383;-74
2021/08/11 07:04:39;;;;;;;6.82;5.10;;;15.30;99.90;;;14.98;100.00;101592.41;4150281;28;20139;-74
2021/08/11 07:06:40;;;;;;;6.15;4.70;;;15.40;99.90;;;14.92;100.00;101588.56;4133995;28;20026;-74
2021/08/11 07:08:41;;;;;;;7.97;4.72;;;15.40;99.90;;;14.82;100.00;101582.56;4118681;28;20066;-74
2021/08/11 07:10:42;;;;;;;7.50;4.72;;;15.40;99.90;;;14.85;100.00;101584.06;4118150;28;20030;-74
2021/08/11 07:12:44;;;;;;;8.15;6.15;;;15.40;99.90;;;15.05;100.00;101588.09;4135400;28;20034;-74
2021/08/11 07:14:46;;;;;;;6.63;5.18;;;15.50;99.90;;;15.05;100.00;101581.94;4122205;28;20057;-74
2021/08/11 07:16:46;;;;;;;5.47;3.97;;;15.60;99.90;;;15.08;100.00;101593.09;4121875;28;20027;-74
2021/08/11 07:18:47;;;;;;;7.63;4.75;;;15.60;99.90;;;15.08;100.00;101579.81;4122078;28;20038;-74
2021/08/11 07:20:49;;;;;;;8.18;4.78;;;15.60;99.90;;;15.15;100.00;101583.44;4136895;28;20030;-74
2021/08/11 07:22:50;;;;;;;6.30;5.70;;;15.70;99.90;;;15.29;100.00;101587.28;4120650;28;20035;-74
2021/08/11 07:24:51;;;;;;;8.73;5.22;;;15.80;99.90;;;15.17;100.00;101570.81;4121501;28;20037;-74
2021/08/11 07:26:52;;;;;;;13.88;6.13;;;15.80;99.90;;;15.37;100.00;101585.47;4105009;29;20519;-74
2021/08/11 07:28:53;;;;;;;8.27;6.28;;;15.90;99.90;;;15.49;99.90;101584.16;4136676;28;20039;-74
2021/08/11 07:30:54;;;;;;;6.10;5.50;;;15.90;99.90;;;15.57;99.89;101575.31;4120613;28;20031;-74
2021/08/11 07:32:55;;;;;;;5.38;4.72;;;16.00;99.90;;;15.55;100.00;101582.66;4121767;28;20027;-74
2021/08/11 07:34:56;;;;;;;9.18;5.85;;;16.10;99.90;;;15.55;100.00;101587.13;4120580;28;20031;-74
2021/08/11 07:36:57;;;;;;;5.43;4.35;;;16.10;99.90;;;15.57;100.00;101577.16;4120794;28;20570;-74
2021/08/11 07:38:58;;;;;;;8.10;5.07;;;16.10;99.90;;;15.65;99.95;101583.28;4136457;28;20022;-74
2021/08/11 07:40:59;;;;;;;6.78;5.43;;;16.20;99.90;;;15.64;100.00;101579.00;4104236;29;20094;-74
2021/08/11 07:43:01;;;;;;;10.85;5.88;;;16.30;99.90;;;15.70;100.00;101578.31;4120594;28;20506;-74
2021/08/11 07:45:02;;;;;;;6.25;3.88;;;16.30;99.90;;;15.77;100.00;101584.59;4120672;28;20073;-74
2021/08/11 07:47:03;;;;;;;6.85;4.30;;;16.40;99.90;;;15.82;100.00;101581.44;4120434;28;20060;-74
2021/08/11 07:49:04;;;;;;;10.00;5.63;;;16.40;99.90;;;15.94;99.51;101580.09;4120357;28;20035;-74
2021/08/11 07:51:05;;;;;;;6.00;4.50;;;16.50;99.90;;;16.08;98.73;101583.88;4121861;28;20073;-74
2021/08/11 07:53:06;;;;;;;5.78;4.57;;;16.60;99.90;;;16.06;99.19;101589.38;4152697;28;20029;-74
2021/08/11 07:55:08;;;;;;;6.63;4.00;;;16.60;99.90;;;16.14;98.84;101573.38;4120008;28;20027;-74
2021/08/11 07:57:09;;;;;;;8.95;5.25;;;16.70;99.90;;;16.11;98.81;101575.53;4120302;28;20081;-74
2021/08/11 07:59:10;;;;;;;7.43;5.07;;;16.70;99.90;;;16.30;97.53;101575.97;4120455;28;20034;-74
2021/08/11 08:01:11;;;;;;;7.53;5.40;;;16.80;99.90;;;16.22;98.07;101583.97;4136414;28;20034;-74
2021/08/11 08:03:12;;;;;;;9.10;5.15;;;16.90;99.90;;;16.31;97.86;101582.94;4121312;28;20023;-74
2021/08/11 08:05:13;;;;;;;8.18;6.00;;;17.00;99.90;;;16.35;97.93;101573.63;4121222;28;20077;-74
2021/08/11 08:07:14;;;;;;;6.40;4.03;;;17.10;99.90;;;16.52;98.05;101580.50;4152188;28;20097;-74
2021/08/11 08:09:15;;;;;;;6.95;3.85;;;17.20;99.90;;;16.64;97.96;101580.16;4119728;28;20039;-74
2021/08/11 08:11:16;;;;;;;5.72;3.95;;;17.30;99.90;;;16.78;96.98;101585.59;4120025;28;20566;-74
2021/08/11 08:13:20;;;;;;;7.30;5.63;;;17.40;99.90;;;16.96;96.14;101580.81;4136220;28;20437;-74
2021/08/11 08:15:21;;;;;;;5.38;4.45;;;17.50;99.90;;;16.94;96.16;101571.31;4136231;28;20030;-74
2021/08/11 08:17:22;;;;;;;6.85;4.75;;;17.60;99.90;;;16.90;96.33;101568.19;4136133;28;20062;-74
2021/08/11 08:19:23;;;;;;;5.57;4.63;;;17.60;99.90;;;16.96;96.71;101562.16;4119933;28;20027;-74
2021/08/11 08:21:23;;;;;;;7.53;5.18;;;17.70;99.90;;;17.14;95.26;101564.50;4152167;28;20037;-75
2021/08/11 08:23:25;;;;;;;7.32;5.63;;;17.80;99.90;;;17.08;94.35;101565.22;4120406;28;20041;-74
2021/08/11 08:25:26;;;;;;;6.50;5.13;;;17.90;99.90;;;17.18;95.02;101576.47;4120870;28;20023;-74
2021/08/11 08:27:27;;;;;;;9.35;5.03;;;17.90;99.90;;;17.23;93.27;101576.78;4119855;28;20487;-74
2021/08/11 08:29:28;;;;;;;8.07;4.93;;;18.00;99.90;;;17.27;93.14;101590.56;4135799;28;20023;-74